sensor_id;sensor_type;location;lat;lon;timestamp;P1;durP1;ratioP1;P2;durP2;ratioP2
32451;SDS011;45528;52.102;5.242;2023-08-06T00:01:37;3.9;;;2.31;;
32451;SDS011;45528;52.102;5.242;2023-08-06T00:03:13;5.2;;;2.7;;
32451;SDS011;45528;52.102;5.242;2023-08-06T00:04:49;3.9;;;2.4;;
32451;SDS011;45528;52.102;5.242;2023-08-06T00:08:01;4.41;;;2.4;;
32451;SDS011;45528;52.102;5.242;2023-08-06T00:09:37;6.0;;;2.8;;
32451;SDS011;45528;52.102;5.242;2023-08-06T00:11:13;3.6;;;2.31;;
32451;SDS011;45528;52.102;5.242;2023-08-06T00:14:25;5.2;;;2.4;;
32451;SDS011;45528;52.102;5.242;2023-08-06T00:16:08;4.7;;;2.21;;
32451;SDS011;45528;52.102;5.242;2023-08-06T00:17:46;7.3;;;2.7;;
32451;SDS011;45528;52.102;5.242;2023-08-06T00:19:23;3.5;;;2.1;;
32451;SDS011;45528;52.102;5.242;2023-08-06T00:22:35;4.8;;;2.5;;
32451;SDS011;45528;52.102;5.242;2023-08-06T00:24:13;4.8;;;2.4;;
32451;SDS011;45528;52.102;5.242;2023-08-06T00:25:49;3.3;;;2.1;;
32451;SDS011;45528;52.102;5.242;2023-08-06T00:29:02;4.5;;;2.21;;
32451;SDS011;45528;52.102;5.242;2023-08-06T00:30:39;6.0;;;2.9;;
32451;SDS011;45528;52.102;5.242;2023-08-06T00:32:16;4.0;;;2.21;;
32451;SDS011;45528;52.102;5.242;2023-08-06T00:35:29;5.3;;;2.7;;
32451;SDS011;45528;52.102;5.242;2023-08-06T00:37:06;5.6;;;2.5;;
32451;SDS011;45528;52.102;5.242;2023-08-06T00:38:43;5.0;;;2.7;;
32451;SDS011;45528;52.102;5.242;2023-08-06T00:40:20;4.3;;;2.31;;
32451;SDS011;45528;52.102;5.242;2023-08-06T00:43:33;7.0;;;3.0;;
32451;SDS011;45528;52.102;5.242;2023-08-06T00:45:10;5.6;;;2.5;;
32451;SDS011;45528;52.102;5.242;2023-08-06T00:46:47;5.4;;;2.9;;
32451;SDS011;45528;52.102;5.242;2023-08-06T00:50:00;4.8;;;2.21;;
32451;SDS011;45528;52.102;5.242;2023-08-06T00:51:37;4.5;;;2.6;;
32451;SDS011;45528;52.102;5.242;2023-08-06T00:53:14;3.6;;;2.0;;
32451;SDS011;45528;52.102;5.242;2023-08-06T00:54:50;6.8;;;2.31;;
32451;SDS011;45528;52.102;5.242;2023-08-06T00:58:04;3.0;;;1.7;;
32451;SDS011;45528;52.102;5.242;2023-08-06T00:59:41;5.3;;;2.31;;
32451;SDS011;45528;52.102;5.242;2023-08-06T01:01:18;4.3;;;2.31;;
32451;SDS011;45528;52.102;5.242;2023-08-06T01:04:32;4.8;;;2.21;;
32451;SDS011;45528;52.102;5.242;2023-08-06T01:06:08;4.3;;;2.1;;
32451;SDS011;45528;52.102;5.242;2023-08-06T01:07:47;5.11;;;2.4;;
32451;SDS011;45528;52.102;5.242;2023-08-06T01:09:40;4.2;;;2.4;;
32451;SDS011;45528;52.102;5.242;2023-08-06T01:13:16;4.1;;;2.5;;
32451;SDS011;45528;52.102;5.242;2023-08-06T01:15:07;5.11;;;2.5;;
32451;SDS011;45528;52.102;5.242;2023-08-06T01:16:52;4.3;;;2.7;;
32451;SDS011;45528;52.102;5.242;2023-08-06T01:18:31;7.3;;;2.5;;
32451;SDS011;45528;52.102;5.242;2023-08-06T01:20:07;7.3;;;2.5;;
32451;SDS011;45528;52.102;5.242;2023-08-06T01:23:20;3.9;;;1.9;;
32451;SDS011;45528;52.102;5.242;2023-08-06T01:24:57;5.11;;;3.0;;
32451;SDS011;45528;52.102;5.242;2023-08-06T01:26:35;3.6;;;2.21;;
32451;SDS011;45528;52.102;5.242;2023-08-06T01:28:19;6.1;;;2.5;;
32451;SDS011;45528;52.102;5.242;2023-08-06T01:31:58;4.1;;;2.6;;
32451;SDS011;45528;52.102;5.242;2023-08-06T01:33:38;3.8;;;2.6;;
32451;SDS011;45528;52.102;5.242;2023-08-06T01:35:21;3.7;;;2.21;;
32451;SDS011;45528;52.102;5.242;2023-08-06T01:36:58;5.5;;;2.5;;
32451;SDS011;45528;52.102;5.242;2023-08-06T01:40:13;4.41;;;2.4;;
32451;SDS011;45528;52.102;5.242;2023-08-06T01:41:50;4.0;;;2.5;;
32451;SDS011;45528;52.102;5.242;2023-08-06T01:43:26;3.3;;;2.4;;
32451;SDS011;45528;52.102;5.242;2023-08-06T01:45:02;4.41;;;2.4;;
32451;SDS011;45528;52.102;5.242;2023-08-06T01:48:16;4.5;;;2.31;;
32451;SDS011;45528;52.102;5.242;2023-08-06T01:49:53;5.8;;;2.7;;
32451;SDS011;45528;52.102;5.242;2023-08-06T01:51:29;4.5;;;2.21;;
32451;SDS011;45528;52.102;5.242;2023-08-06T01:54:41;4.41;;;2.21;;
32451;SDS011;45528;52.102;5.242;2023-08-06T01:56:17;3.5;;;2.0;;
32451;SDS011;45528;52.102;5.242;2023-08-06T01:57:53;4.1;;;2.5;;
32451;SDS011;45528;52.102;5.242;2023-08-06T02:01:05;3.2;;;1.9;;
32451;SDS011;45528;52.102;5.242;2023-08-06T02:02:42;5.11;;;2.5;;
32451;SDS011;45528;52.102;5.242;2023-08-06T02:04:18;9.71;;;2.4;;
32451;SDS011;45528;52.102;5.242;2023-08-06T02:07:30;6.4;;;2.8;;
32451;SDS011;45528;52.102;5.242;2023-08-06T02:09:06;3.3;;;2.31;;
32451;SDS011;45528;52.102;5.242;2023-08-06T02:10:42;3.3;;;1.9;;
32451;SDS011;45528;52.102;5.242;2023-08-06T02:12:18;4.61;;;2.6;;
32451;SDS011;45528;52.102;5.242;2023-08-06T02:15:30;3.7;;;2.4;;
32451;SDS011;45528;52.102;5.242;2023-08-06T02:17:07;5.3;;;2.5;;
32451;SDS011;45528;52.102;5.242;2023-08-06T02:18:43;4.2;;;2.4;;
32451;SDS011;45528;52.102;5.242;2023-08-06T02:21:55;5.5;;;2.5;;
32451;SDS011;45528;52.102;5.242;2023-08-06T02:23:32;3.9;;;2.1;;
32451;SDS011;45528;52.102;5.242;2023-08-06T02:25:08;5.0;;;2.5;;
32451;SDS011;45528;52.102;5.242;2023-08-06T02:28:21;4.41;;;2.31;;
32451;SDS011;45528;52.102;5.242;2023-08-06T02:29:57;5.0;;;2.5;;
32451;SDS011;45528;52.102;5.242;2023-08-06T02:31:35;6.0;;;3.1;;
32451;SDS011;45528;52.102;5.242;2023-08-06T02:33:11;4.5;;;2.31;;
32451;SDS011;45528;52.102;5.242;2023-08-06T02:36:23;5.0;;;2.21;;
32451;SDS011;45528;52.102;5.242;2023-08-06T02:37:59;4.5;;;2.31;;
32451;SDS011;45528;52.102;5.242;2023-08-06T02:39:35;4.5;;;2.31;;
32451;SDS011;45528;52.102;5.242;2023-08-06T02:42:48;3.2;;;2.0;;
32451;SDS011;45528;52.102;5.242;2023-08-06T02:44:26;4.91;;;2.1;;
32451;SDS011;45528;52.102;5.242;2023-08-06T02:46:03;6.1;;;2.7;;
32451;SDS011;45528;52.102;5.242;2023-08-06T02:49:16;4.8;;;2.0;;
32451;SDS011;45528;52.102;5.242;2023-08-06T02:50:52;5.11;;;2.8;;
32451;SDS011;45528;52.102;5.242;2023-08-06T02:52:32;4.1;;;2.4;;
32451;SDS011;45528;52.102;5.242;2023-08-06T02:54:08;5.4;;;2.31;;
32451;SDS011;45528;52.102;5.242;2023-08-06T02:57:22;5.11;;;2.31;;
32451;SDS011;45528;52.102;5.242;2023-08-06T02:58:59;5.6;;;2.6;;
32451;SDS011;45528;52.102;5.242;2023-08-06T03:00:35;4.91;;;2.31;;
32451;SDS011;45528;52.102;5.242;2023-08-06T03:03:48;4.1;;;2.8;;
32451;SDS011;45528;52.102;5.242;2023-08-06T03:05:24;4.1;;;2.4;;
32451;SDS011;45528;52.102;5.242;2023-08-06T03:07:00;5.4;;;2.4;;
32451;SDS011;45528;52.102;5.242;2023-08-06T03:10:12;4.0;;;2.21;;
32451;SDS011;45528;52.102;5.242;2023-08-06T03:11:48;5.6;;;2.9;;
32451;SDS011;45528;52.102;5.242;2023-08-06T03:13:24;6.6;;;2.9;;
32451;SDS011;45528;52.102;5.242;2023-08-06T03:15:02;4.7;;;2.7;;
32451;SDS011;45528;52.102;5.242;2023-08-06T03:18:16;4.61;;;2.4;;
32451;SDS011;45528;52.102;5.242;2023-08-06T03:19:52;4.8;;;2.7;;
32451;SDS011;45528;52.102;5.242;2023-08-06T03:21:28;5.11;;;2.6;;
32451;SDS011;45528;52.102;5.242;2023-08-06T03:24:40;5.2;;;2.6;;
32451;SDS011;45528;52.102;5.242;2023-08-06T03:26:16;5.4;;;2.7;;
32451;SDS011;45528;52.102;5.242;2023-08-06T03:27:52;4.41;;;2.6;;
32451;SDS011;45528;52.102;5.242;2023-08-06T03:31:06;5.8;;;3.0;;
32451;SDS011;45528;52.102;5.242;2023-08-06T03:32:42;5.11;;;2.9;;
32451;SDS011;45528;52.102;5.242;2023-08-06T03:34:18;6.1;;;3.0;;
32451;SDS011;45528;52.102;5.242;2023-08-06T03:37:31;5.7;;;3.0;;
32451;SDS011;45528;52.102;5.242;2023-08-06T03:39:07;5.5;;;3.0;;
32451;SDS011;45528;52.102;5.242;2023-08-06T03:40:43;4.5;;;2.7;;
32451;SDS011;45528;52.102;5.242;2023-08-06T03:42:19;6.3;;;3.3;;
32451;SDS011;45528;52.102;5.242;2023-08-06T03:45:32;6.4;;;3.3;;
32451;SDS011;45528;52.102;5.242;2023-08-06T03:47:08;5.6;;;2.7;;
32451;SDS011;45528;52.102;5.242;2023-08-06T03:48:44;6.6;;;3.3;;
32451;SDS011;45528;52.102;5.242;2023-08-06T03:51:56;7.3;;;3.2;;
32451;SDS011;45528;52.102;5.242;2023-08-06T03:53:32;5.0;;;2.7;;
32451;SDS011;45528;52.102;5.242;2023-08-06T03:55:08;6.0;;;2.9;;
32451;SDS011;45528;52.102;5.242;2023-08-06T03:58:22;5.0;;;3.0;;
32451;SDS011;45528;52.102;5.242;2023-08-06T03:59:58;4.7;;;2.9;;
32451;SDS011;45528;52.102;5.242;2023-08-06T04:01:34;5.5;;;2.9;;
32451;SDS011;45528;52.102;5.242;2023-08-06T04:03:10;5.5;;;3.0;;
32451;SDS011;45528;52.102;5.242;2023-08-06T04:06:23;6.5;;;3.5;;
32451;SDS011;45528;52.102;5.242;2023-08-06T04:07:59;6.8;;;3.3;;
32451;SDS011;45528;52.102;5.242;2023-08-06T04:09:52;4.2;;;2.8;;
32451;SDS011;45528;52.102;5.242;2023-08-06T04:11:29;5.3;;;2.7;;
32451;SDS011;45528;52.102;5.242;2023-08-06T04:14:43;5.4;;;3.0;;
32451;SDS011;45528;52.102;5.242;2023-08-06T04:16:20;8.5;;;3.0;;
32451;SDS011;45528;52.102;5.242;2023-08-06T04:17:57;6.2;;;3.5;;
32451;SDS011;45528;52.102;5.242;2023-08-06T04:21:09;5.5;;;2.9;;
32451;SDS011;45528;52.102;5.242;2023-08-06T04:22:45;6.1;;;3.3;;
32451;SDS011;45528;52.102;5.242;2023-08-06T04:24:21;5.6;;;3.2;;
32451;SDS011;45528;52.102;5.242;2023-08-06T04:27:35;8.9;;;3.3;;
32451;SDS011;45528;52.102;5.242;2023-08-06T04:29:11;4.7;;;2.6;;
32451;SDS011;45528;52.102;5.242;2023-08-06T04:30:48;5.8;;;3.0;;
32451;SDS011;45528;52.102;5.242;2023-08-06T04:32:25;5.5;;;2.9;;
32451;SDS011;45528;52.102;5.242;2023-08-06T04:35:37;10.1;;;3.4;;
32451;SDS011;45528;52.102;5.242;2023-08-06T04:37:13;6.1;;;3.3;;
32451;SDS011;45528;52.102;5.242;2023-08-06T04:38:49;5.5;;;3.3;;
32451;SDS011;45528;52.102;5.242;2023-08-06T04:42:02;7.2;;;3.4;;
32451;SDS011;45528;52.102;5.242;2023-08-06T04:43:39;6.3;;;3.2;;
32451;SDS011;45528;52.102;5.242;2023-08-06T04:45:15;4.91;;;2.31;;
32451;SDS011;45528;52.102;5.242;2023-08-06T04:48:27;4.7;;;2.7;;
32451;SDS011;45528;52.102;5.242;2023-08-06T04:50:03;8.71;;;3.8;;
32451;SDS011;45528;52.102;5.242;2023-08-06T04:51:40;6.3;;;3.1;;
32451;SDS011;45528;52.102;5.242;2023-08-06T04:54:55;6.5;;;3.0;;
32451;SDS011;45528;52.102;5.242;2023-08-06T04:56:31;6.4;;;2.5;;
32451;SDS011;45528;52.102;5.242;2023-08-06T04:58:08;5.9;;;3.1;;
32451;SDS011;45528;52.102;5.242;2023-08-06T04:59:45;5.4;;;2.7;;
32451;SDS011;45528;52.102;5.242;2023-08-06T05:02:59;5.5;;;2.6;;
32451;SDS011;45528;52.102;5.242;2023-08-06T05:04:35;5.3;;;2.8;;
32451;SDS011;45528;52.102;5.242;2023-08-06T05:06:11;4.8;;;3.0;;
32451;SDS011;45528;52.102;5.242;2023-08-06T05:09:26;5.4;;;3.3;;
32451;SDS011;45528;52.102;5.242;2023-08-06T05:11:02;7.4;;;3.0;;
32451;SDS011;45528;52.102;5.242;2023-08-06T05:12:38;7.6;;;3.7;;
32451;SDS011;45528;52.102;5.242;2023-08-06T05:15:50;5.8;;;3.2;;
32451;SDS011;45528;52.102;5.242;2023-08-06T05:17:29;4.61;;;2.6;;
32451;SDS011;45528;52.102;5.242;2023-08-06T05:19:05;5.9;;;2.7;;
32451;SDS011;45528;52.102;5.242;2023-08-06T05:20:42;6.3;;;3.3;;
32451;SDS011;45528;52.102;5.242;2023-08-06T05:23:55;5.3;;;3.0;;
32451;SDS011;45528;52.102;5.242;2023-08-06T05:25:34;5.7;;;3.1;;
32451;SDS011;45528;52.102;5.242;2023-08-06T05:27:10;6.1;;;3.5;;
32451;SDS011;45528;52.102;5.242;2023-08-06T05:30:23;6.5;;;3.4;;
32451;SDS011;45528;52.102;5.242;2023-08-06T05:31:59;7.6;;;3.0;;
32451;SDS011;45528;52.102;5.242;2023-08-06T05:33:37;5.7;;;2.7;;
32451;SDS011;45528;52.102;5.242;2023-08-06T05:35:14;7.1;;;3.5;;
32451;SDS011;45528;52.102;5.242;2023-08-06T05:38:27;6.8;;;3.1;;
32451;SDS011;45528;52.102;5.242;2023-08-06T05:40:06;7.7;;;3.6;;
32451;SDS011;45528;52.102;5.242;2023-08-06T05:41:42;8.71;;;4.1;;
32451;SDS011;45528;52.102;5.242;2023-08-06T05:44:55;7.2;;;3.5;;
32451;SDS011;45528;52.102;5.242;2023-08-06T05:46:32;6.7;;;3.8;;
32451;SDS011;45528;52.102;5.242;2023-08-06T05:48:08;7.0;;;3.7;;
32451;SDS011;45528;52.102;5.242;2023-08-06T05:51:21;5.5;;;3.4;;
32451;SDS011;45528;52.102;5.242;2023-08-06T05:52:58;6.7;;;3.3;;
32451;SDS011;45528;52.102;5.242;2023-08-06T05:54:34;6.1;;;3.5;;
32451;SDS011;45528;52.102;5.242;2023-08-06T05:56:10;7.0;;;3.9;;
32451;SDS011;45528;52.102;5.242;2023-08-06T05:59:23;6.6;;;3.3;;
32451;SDS011;45528;52.102;5.242;2023-08-06T06:01:00;6.5;;;3.5;;
32451;SDS011;45528;52.102;5.242;2023-08-06T06:02:37;7.0;;;3.1;;
32451;SDS011;45528;52.102;5.242;2023-08-06T06:05:50;8.5;;;4.41;;
32451;SDS011;45528;52.102;5.242;2023-08-06T06:07:26;8.9;;;4.3;;
32451;SDS011;45528;52.102;5.242;2023-08-06T06:09:02;7.6;;;3.4;;
32451;SDS011;45528;52.102;5.242;2023-08-06T06:12:14;10.21;;;4.2;;
32451;SDS011;45528;52.102;5.242;2023-08-06T06:13:52;7.7;;;3.6;;
32451;SDS011;45528;52.102;5.242;2023-08-06T06:15:28;6.9;;;3.5;;
32451;SDS011;45528;52.102;5.242;2023-08-06T06:17:04;7.5;;;3.8;;
32451;SDS011;45528;52.102;5.242;2023-08-06T06:20:17;6.5;;;3.5;;
32451;SDS011;45528;52.102;5.242;2023-08-06T06:21:53;6.1;;;3.2;;
32451;SDS011;45528;52.102;5.242;2023-08-06T06:23:30;6.7;;;3.7;;
32451;SDS011;45528;52.102;5.242;2023-08-06T06:26:44;8.5;;;3.8;;
32451;SDS011;45528;52.102;5.242;2023-08-06T06:28:21;8.4;;;3.9;;
32451;SDS011;45528;52.102;5.242;2023-08-06T06:29:58;8.71;;;4.61;;
32451;SDS011;45528;52.102;5.242;2023-08-06T06:33:11;6.8;;;3.6;;
32451;SDS011;45528;52.102;5.242;2023-08-06T06:34:48;5.5;;;3.0;;
32451;SDS011;45528;52.102;5.242;2023-08-06T06:36:26;4.3;;;2.31;;
32451;SDS011;45528;52.102;5.242;2023-08-06T06:38:03;3.9;;;2.21;;
32451;SDS011;45528;52.102;5.242;2023-08-06T06:41:15;3.3;;;1.7;;
32451;SDS011;45528;52.102;5.242;2023-08-06T06:42:52;3.1;;;1.0;;
32451;SDS011;45528;52.102;5.242;2023-08-06T06:44:28;0.9;;;0.8;;
32451;SDS011;45528;52.102;5.242;2023-08-06T06:47:43;1.6;;;0.8;;
32451;SDS011;45528;52.102;5.242;2023-08-06T06:49:19;1.7;;;0.7;;
32451;SDS011;45528;52.102;5.242;2023-08-06T06:50:55;1.8;;;0.8;;
32451;SDS011;45528;52.102;5.242;2023-08-06T06:54:08;1.11;;;0.8;;
32451;SDS011;45528;52.102;5.242;2023-08-06T06:55:45;1.4;;;0.9;;
32451;SDS011;45528;52.102;5.242;2023-08-06T06:57:21;2.6;;;1.0;;
32451;SDS011;45528;52.102;5.242;2023-08-06T06:58:57;1.3;;;0.8;;
32451;SDS011;45528;52.102;5.242;2023-08-06T07:02:12;1.2;;;0.7;;
32451;SDS011;45528;52.102;5.242;2023-08-06T07:03:48;1.2;;;0.7;;
32451;SDS011;45528;52.102;5.242;2023-08-06T07:05:24;1.2;;;0.7;;
32451;SDS011;45528;52.102;5.242;2023-08-06T07:08:36;1.5;;;0.6;;
32451;SDS011;45528;52.102;5.242;2023-08-06T07:10:13;1.5;;;0.6;;
32451;SDS011;45528;52.102;5.242;2023-08-06T07:11:49;0.9;;;0.7;;
32451;SDS011;45528;52.102;5.242;2023-08-06T07:15:02;1.2;;;0.7;;
32451;SDS011;45528;52.102;5.242;2023-08-06T07:16:40;1.11;;;0.6;;
32451;SDS011;45528;52.102;5.242;2023-08-06T07:18:17;2.21;;;0.6;;
32451;SDS011;45528;52.102;5.242;2023-08-06T07:19:53;1.5;;;0.8;;
32451;SDS011;45528;52.102;5.242;2023-08-06T07:23:06;2.0;;;0.9;;
32451;SDS011;45528;52.102;5.242;2023-08-06T07:24:43;2.0;;;0.9;;
32451;SDS011;45528;52.102;5.242;2023-08-06T07:26:19;1.2;;;0.9;;
32451;SDS011;45528;52.102;5.242;2023-08-06T07:29:32;1.8;;;0.9;;
32451;SDS011;45528;52.102;5.242;2023-08-06T07:31:09;1.8;;;1.11;;
32451;SDS011;45528;52.102;5.242;2023-08-06T07:32:46;1.6;;;1.0;;
32451;SDS011;45528;52.102;5.242;2023-08-06T07:35:59;1.7;;;1.2;;
32451;SDS011;45528;52.102;5.242;2023-08-06T07:37:35;2.4;;;1.11;;
32451;SDS011;45528;52.102;5.242;2023-08-06T07:39:11;1.6;;;1.11;;
32451;SDS011;45528;52.102;5.242;2023-08-06T07:40:48;2.8;;;1.3;;
32451;SDS011;45528;52.102;5.242;2023-08-06T07:44:01;2.0;;;1.2;;
32451;SDS011;45528;52.102;5.242;2023-08-06T07:45:37;2.5;;;1.4;;
32451;SDS011;45528;52.102;5.242;2023-08-06T07:47:14;1.5;;;1.0;;
32451;SDS011;45528;52.102;5.242;2023-08-06T07:50:27;1.7;;;1.0;;
32451;SDS011;45528;52.102;5.242;2023-08-06T07:52:04;2.31;;;1.3;;
32451;SDS011;45528;52.102;5.242;2023-08-06T07:53:41;2.6;;;1.2;;
32451;SDS011;45528;52.102;5.242;2023-08-06T07:56:54;3.1;;;1.4;;
32451;SDS011;45528;52.102;5.242;2023-08-06T07:58:30;2.0;;;1.11;;
32451;SDS011;45528;52.102;5.242;2023-08-06T08:00:08;2.6;;;1.0;;
32451;SDS011;45528;52.102;5.242;2023-08-06T08:01:44;3.3;;;1.7;;
32451;SDS011;45528;52.102;5.242;2023-08-06T08:04:58;2.6;;;1.11;;
32451;SDS011;45528;52.102;5.242;2023-08-06T08:06:34;2.4;;;1.11;;
32451;SDS011;45528;52.102;5.242;2023-08-06T08:08:10;1.9;;;1.11;;
32451;SDS011;45528;52.102;5.242;2023-08-06T08:11:23;3.2;;;1.11;;
32451;SDS011;45528;52.102;5.242;2023-08-06T08:13:01;2.21;;;0.9;;
32451;SDS011;45528;52.102;5.242;2023-08-06T08:14:38;4.0;;;1.2;;
32451;SDS011;45528;52.102;5.242;2023-08-06T08:17:51;1.2;;;1.0;;
32451;SDS011;45528;52.102;5.242;2023-08-06T08:19:27;1.8;;;1.2;;
32451;SDS011;45528;52.102;5.242;2023-08-06T08:21:03;1.8;;;0.8;;
32451;SDS011;45528;52.102;5.242;2023-08-06T08:22:40;1.9;;;1.0;;
32451;SDS011;45528;52.102;5.242;2023-08-06T08:25:54;1.9;;;0.8;;
32451;SDS011;45528;52.102;5.242;2023-08-06T08:27:31;2.8;;;1.2;;
32451;SDS011;45528;52.102;5.242;2023-08-06T08:29:07;1.3;;;0.9;;
32451;SDS011;45528;52.102;5.242;2023-08-06T08:32:20;3.2;;;1.2;;
32451;SDS011;45528;52.102;5.242;2023-08-06T08:33:56;2.31;;;1.11;;
32451;SDS011;45528;52.102;5.242;2023-08-06T08:35:32;2.31;;;1.11;;
32451;SDS011;45528;52.102;5.242;2023-08-06T08:38:46;1.9;;;1.2;;
32451;SDS011;45528;52.102;5.242;2023-08-06T08:40:23;2.1;;;1.2;;
32451;SDS011;45528;52.102;5.242;2023-08-06T08:42:05;3.4;;;1.3;;
32451;SDS011;45528;52.102;5.242;2023-08-06T08:43:42;1.4;;;1.0;;
32451;SDS011;45528;52.102;5.242;2023-08-06T08:46:57;2.21;;;1.2;;
32451;SDS011;45528;52.102;5.242;2023-08-06T08:48:35;3.2;;;1.4;;
32451;SDS011;45528;52.102;5.242;2023-08-06T08:50:11;1.7;;;1.11;;
32451;SDS011;45528;52.102;5.242;2023-08-06T08:53:28;3.0;;;1.5;;
32451;SDS011;45528;52.102;5.242;2023-08-06T08:55:06;2.4;;;1.5;;
32451;SDS011;45528;52.102;5.242;2023-08-06T08:56:43;3.7;;;1.6;;
32451;SDS011;45528;52.102;5.242;2023-08-06T08:58:19;2.9;;;1.5;;
32451;SDS011;45528;52.102;5.242;2023-08-06T09:01:32;3.5;;;1.8;;
32451;SDS011;45528;52.102;5.242;2023-08-06T09:03:09;3.8;;;1.6;;
32451;SDS011;45528;52.102;5.242;2023-08-06T09:04:46;2.6;;;1.7;;
32451;SDS011;45528;52.102;5.242;2023-08-06T09:08:04;3.8;;;2.0;;
32451;SDS011;45528;52.102;5.242;2023-08-06T09:09:40;4.8;;;2.21;;
32451;SDS011;45528;52.102;5.242;2023-08-06T09:11:19;3.0;;;1.6;;
32451;SDS011;45528;52.102;5.242;2023-08-06T09:12:57;2.7;;;1.5;;
32451;SDS011;45528;52.102;5.242;2023-08-06T09:16:11;2.7;;;1.5;;
32451;SDS011;45528;52.102;5.242;2023-08-06T09:17:47;5.4;;;1.6;;
32451;SDS011;45528;52.102;5.242;2023-08-06T09:19:24;3.7;;;1.6;;
32451;SDS011;45528;52.102;5.242;2023-08-06T09:22:38;3.4;;;1.5;;
32451;SDS011;45528;52.102;5.242;2023-08-06T09:24:15;4.2;;;1.6;;
32451;SDS011;45528;52.102;5.242;2023-08-06T09:25:51;2.8;;;1.5;;
32451;SDS011;45528;52.102;5.242;2023-08-06T09:27:28;3.5;;;1.7;;
32451;SDS011;45528;52.102;5.242;2023-08-06T09:30:43;2.9;;;1.7;;
32451;SDS011;45528;52.102;5.242;2023-08-06T09:32:24;2.21;;;1.5;;
32451;SDS011;45528;52.102;5.242;2023-08-06T09:34:00;4.61;;;2.1;;
32451;SDS011;45528;52.102;5.242;2023-08-06T09:37:14;4.0;;;1.9;;
32451;SDS011;45528;52.102;5.242;2023-08-06T09:38:51;2.7;;;1.8;;
32451;SDS011;45528;52.102;5.242;2023-08-06T09:40:28;2.7;;;1.5;;
32451;SDS011;45528;52.102;5.242;2023-08-06T09:42:06;5.11;;;2.1;;
32451;SDS011;45528;52.102;5.242;2023-08-06T09:45:19;2.1;;;1.3;;
32451;SDS011;45528;52.102;5.242;2023-08-06T09:46:56;2.6;;;1.5;;
32451;SDS011;45528;52.102;5.242;2023-08-06T09:48:35;3.8;;;1.5;;
32451;SDS011;45528;52.102;5.242;2023-08-06T09:51:52;4.41;;;1.7;;
32451;SDS011;45528;52.102;5.242;2023-08-06T09:53:29;4.41;;;1.6;;
32451;SDS011;45528;52.102;5.242;2023-08-06T09:55:06;3.0;;;1.6;;
32451;SDS011;45528;52.102;5.242;2023-08-06T09:56:44;4.2;;;1.9;;
32451;SDS011;45528;52.102;5.242;2023-08-06T10:00:00;3.0;;;1.3;;
32451;SDS011;45528;52.102;5.242;2023-08-06T10:01:38;4.61;;;1.8;;
32451;SDS011;45528;52.102;5.242;2023-08-06T10:03:15;3.6;;;1.7;;
32451;SDS011;45528;52.102;5.242;2023-08-06T10:06:32;3.5;;;1.4;;
32451;SDS011;45528;52.102;5.242;2023-08-06T10:08:10;3.4;;;1.3;;
32451;SDS011;45528;52.102;5.242;2023-08-06T10:09:47;4.3;;;1.9;;
32451;SDS011;45528;52.102;5.242;2023-08-06T10:11:24;3.0;;;1.9;;
32451;SDS011;45528;52.102;5.242;2023-08-06T10:14:41;1.9;;;1.2;;
32451;SDS011;45528;52.102;5.242;2023-08-06T10:16:18;2.6;;;1.3;;
32451;SDS011;45528;52.102;5.242;2023-08-06T10:17:56;4.7;;;1.7;;
32451;SDS011;45528;52.102;5.242;2023-08-06T10:21:13;4.3;;;1.7;;
32451;SDS011;45528;52.102;5.242;2023-08-06T10:22:59;2.7;;;1.7;;
32451;SDS011;45528;52.102;5.242;2023-08-06T10:24:50;3.7;;;1.6;;
32451;SDS011;45528;52.102;5.242;2023-08-06T10:26:27;4.1;;;1.7;;
32451;SDS011;45528;52.102;5.242;2023-08-06T10:29:45;2.9;;;1.5;;
32451;SDS011;45528;52.102;5.242;2023-08-06T10:31:44;2.9;;;1.2;;
32451;SDS011;45528;52.102;5.242;2023-08-06T10:33:39;2.7;;;1.3;;
32451;SDS011;45528;52.102;5.242;2023-08-06T10:35:50;3.4;;;1.5;;
32451;SDS011;45528;52.102;5.242;2023-08-06T10:37:34;3.0;;;1.4;;
32451;SDS011;45528;52.102;5.242;2023-08-06T10:39:13;3.6;;;1.6;;
32451;SDS011;45528;52.102;5.242;2023-08-06T10:40:52;4.61;;;1.3;;
32451;SDS011;45528;52.102;5.242;2023-08-06T10:44:16;2.9;;;1.2;;
32451;SDS011;45528;52.102;5.242;2023-08-06T10:45:52;2.4;;;1.0;;
32451;SDS011;45528;52.102;5.242;2023-08-06T10:47:29;2.31;;;1.11;;
32451;SDS011;45528;52.102;5.242;2023-08-06T10:49:05;2.4;;;1.2;;
32451;SDS011;45528;52.102;5.242;2023-08-06T10:52:18;1.9;;;1.3;;
32451;SDS011;45528;52.102;5.242;2023-08-06T10:53:54;1.6;;;1.11;;
32451;SDS011;45528;52.102;5.242;2023-08-06T10:55:31;3.0;;;1.4;;
32451;SDS011;45528;52.102;5.242;2023-08-06T10:58:46;2.31;;;1.0;;
32451;SDS011;45528;52.102;5.242;2023-08-06T11:00:24;1.8;;;0.8;;
32451;SDS011;45528;52.102;5.242;2023-08-06T11:02:01;3.1;;;1.0;;
32451;SDS011;45528;52.102;5.242;2023-08-06T11:03:39;3.4;;;0.9;;
32451;SDS011;45528;52.102;5.242;2023-08-06T11:06:53;2.21;;;1.0;;
32451;SDS011;45528;52.102;5.242;2023-08-06T11:08:32;1.7;;;0.8;;
32451;SDS011;45528;52.102;5.242;2023-08-06T11:10:11;5.4;;;1.4;;
32451;SDS011;45528;52.102;5.242;2023-08-06T11:13:25;1.6;;;0.7;;
32451;SDS011;45528;52.102;5.242;2023-08-06T11:15:03;2.4;;;0.9;;
32451;SDS011;45528;52.102;5.242;2023-08-06T11:16:41;1.7;;;0.9;;
32451;SDS011;45528;52.102;5.242;2023-08-06T11:18:18;5.2;;;1.0;;
32451;SDS011;45528;52.102;5.242;2023-08-06T11:21:31;2.8;;;0.9;;
32451;SDS011;45528;52.102;5.242;2023-08-06T11:23:09;1.5;;;0.8;;
32451;SDS011;45528;52.102;5.242;2023-08-06T11:24:45;1.6;;;0.8;;
32451;SDS011;45528;52.102;5.242;2023-08-06T11:28:00;1.8;;;0.8;;
32451;SDS011;45528;52.102;5.242;2023-08-06T11:29:37;2.4;;;0.5;;
32451;SDS011;45528;52.102;5.242;2023-08-06T11:31:18;1.7;;;0.9;;
32451;SDS011;45528;52.102;5.242;2023-08-06T11:34:32;2.1;;;0.9;;
32451;SDS011;45528;52.102;5.242;2023-08-06T11:36:10;2.0;;;0.7;;
32451;SDS011;45528;52.102;5.242;2023-08-06T11:37:46;1.11;;;0.6;;
32451;SDS011;45528;52.102;5.242;2023-08-06T11:39:22;1.11;;;0.6;;
32451;SDS011;45528;52.102;5.242;2023-08-06T11:42:35;1.11;;;0.6;;
32451;SDS011;45528;52.102;5.242;2023-08-06T11:44:12;1.7;;;0.8;;
32451;SDS011;45528;52.102;5.242;2023-08-06T11:45:49;1.7;;;0.8;;
32451;SDS011;45528;52.102;5.242;2023-08-06T11:49:02;1.4;;;0.5;;
32451;SDS011;45528;52.102;5.242;2023-08-06T11:50:39;1.0;;;0.7;;
32451;SDS011;45528;52.102;5.242;2023-08-06T11:52:17;6.8;;;0.7;;
32451;SDS011;45528;52.102;5.242;2023-08-06T11:53:55;0.7;;;0.4;;
32451;SDS011;45528;52.102;5.242;2023-08-06T11:57:09;0.8;;;0.6;;
32451;SDS011;45528;52.102;5.242;2023-08-06T11:58:47;0.5;;;0.4;;
32451;SDS011;45528;52.102;5.242;2023-08-06T12:00:24;1.11;;;0.5;;
32451;SDS011;45528;52.102;5.242;2023-08-06T12:03:40;1.2;;;0.5;;
32451;SDS011;45528;52.102;5.242;2023-08-06T12:05:18;0.8;;;0.5;;
32451;SDS011;45528;52.102;5.242;2023-08-06T12:06:54;1.6;;;0.6;;
32451;SDS011;45528;52.102;5.242;2023-08-06T12:08:31;1.0;;;0.5;;
32451;SDS011;45528;52.102;5.242;2023-08-06T12:11:45;1.0;;;0.5;;
32451;SDS011;45528;52.102;5.242;2023-08-06T12:13:21;3.2;;;0.7;;
32451;SDS011;45528;52.102;5.242;2023-08-06T12:14:57;1.6;;;0.6;;
32451;SDS011;45528;52.102;5.242;2023-08-06T12:18:11;0.4;;;0.4;;
32451;SDS011;45528;52.102;5.242;2023-08-06T12:19:48;1.2;;;0.4;;
32451;SDS011;45528;52.102;5.242;2023-08-06T12:21:24;2.7;;;0.5;;
32451;SDS011;45528;52.102;5.242;2023-08-06T12:24:37;0.5;;;0.3;;
32451;SDS011;45528;52.102;5.242;2023-08-06T12:26:13;0.4;;;0.3;;
32451;SDS011;45528;52.102;5.242;2023-08-06T12:27:49;1.11;;;0.3;;
32451;SDS011;45528;52.102;5.242;2023-08-06T12:29:26;1.6;;;0.3;;
32451;SDS011;45528;52.102;5.242;2023-08-06T12:32:39;0.3;;;0.3;;
32451;SDS011;45528;52.102;5.242;2023-08-06T12:34:15;0.3;;;0.3;;
32451;SDS011;45528;52.102;5.242;2023-08-06T12:35:51;0.4;;;0.4;;
32451;SDS011;45528;52.102;5.242;2023-08-06T12:39:05;0.5;;;0.3;;
32451;SDS011;45528;52.102;5.242;2023-08-06T12:40:41;2.7;;;0.5;;
32451;SDS011;45528;52.102;5.242;2023-08-06T12:42:17;1.0;;;0.6;;
32451;SDS011;45528;52.102;5.242;2023-08-06T12:45:29;1.4;;;0.5;;
32451;SDS011;45528;52.102;5.242;2023-08-06T12:47:06;0.8;;;0.5;;
32451;SDS011;45528;52.102;5.242;2023-08-06T12:48:43;2.9;;;0.5;;
32451;SDS011;45528;52.102;5.242;2023-08-06T12:51:55;1.2;;;0.5;;
32451;SDS011;45528;52.102;5.242;2023-08-06T12:53:31;0.8;;;0.4;;
32451;SDS011;45528;52.102;5.242;2023-08-06T12:55:08;1.0;;;0.4;;
32451;SDS011;45528;52.102;5.242;2023-08-06T12:56:44;0.8;;;0.6;;